createdAt,value
2022-09-30T00:01:27.977Z,9.35
2022-09-30T00:06:30.205Z,8.07
2022-09-30T00:11:33.905Z,10.50
2022-09-30T00:16:36.255Z,9.90
2022-09-30T00:21:37.709Z,11.10
2022-09-30T00:26:39.224Z,10.10
2022-09-30T00:31:41.323Z,8.95
2022-09-30T00:36:47.050Z,8.43
2022-09-30T00:41:51.270Z,8.73
2022-09-30T00:46:53.078Z,9.57
2022-09-30T00:51:56.150Z,8.70
2022-09-30T00:56:59.045Z,9.20
2022-09-30T01:02:01.227Z,8.35
2022-09-30T01:07:04.517Z,9.30
2022-09-30T01:12:07.240Z,8.50
2022-09-30T01:17:25.448Z,11.02
2022-09-30T01:22:45.350Z,10.38
2022-09-30T01:27:55.980Z,8.70
2022-09-30T01:33:03.993Z,8.90
2022-09-30T01:38:24.193Z,9.35
2022-09-30T01:48:45.737Z,9.80
2022-09-30T01:58:57.588Z,10.48
2022-09-30T02:04:02.489Z,9.10
2022-09-30T02:09:24.164Z,9.25
2022-09-30T02:14:28.743Z,10.18
2022-09-30T02:19:43.885Z,10.43
2022-09-30T02:24:47.030Z,9.60
2022-09-30T02:29:51.391Z,9.65
2022-09-30T02:34:56.385Z,9.30
2022-09-30T02:40:03.688Z,8.80
2022-09-30T02:45:08.574Z,9.13
2022-09-30T02:50:33.266Z,9.30
2022-09-30T02:55:37.500Z,9.13
2022-09-30T03:00:39.054Z,8.90
2022-09-30T03:05:40.553Z,12.50
2022-09-30T03:10:42.411Z,8.25
2022-09-30T03:16:14.497Z,9.13
2022-09-30T03:21:34.254Z,9.40
2022-09-30T03:26:54.197Z,10.20
2022-09-30T03:32:04.678Z,9.70
2022-09-30T03:37:32.043Z,9.95
2022-09-30T03:42:38.133Z,8.82
2022-09-30T03:47:47.624Z,8.65
2022-09-30T03:52:49.816Z,10.35
2022-09-30T03:57:54.391Z,8.90
2022-09-30T04:02:57.861Z,9.82
2022-09-30T04:07:59.437Z,9.32
2022-09-30T04:13:00.991Z,10.85
2022-09-30T04:18:04.628Z,9.88
2022-09-30T04:23:06.012Z,9.30
2022-09-30T04:28:07.970Z,8.77
2022-09-30T04:33:09.411Z,9.68
2022-09-30T04:38:10.865Z,10.25
2022-09-30T04:43:12.288Z,9.90
2022-09-30T04:48:14.126Z,8.63
2022-09-30T04:53:16.129Z,9.73
2022-09-30T04:58:17.722Z,8.75
2022-09-30T05:03:19.997Z,10.43
2022-09-30T05:08:22.856Z,10.15
2022-09-30T05:13:25.406Z,10.10
2022-09-30T05:18:26.748Z,10.40
2022-09-30T05:23:30.366Z,9.38
2022-09-30T05:28:32.714Z,11.13
2022-09-30T05:33:35.909Z,11.23
2022-09-30T05:38:55.301Z,11.65
2022-09-30T05:44:19.301Z,10.73
2022-09-30T05:49:20.856Z,11.70
2022-09-30T05:54:22.451Z,10.85
2022-09-30T05:59:23.950Z,12.27
2022-09-30T06:04:25.352Z,13.05
2022-09-30T06:09:26.831Z,12.50
2022-09-30T06:14:28.807Z,11.90
2022-09-30T06:19:31.843Z,11.93
2022-09-30T06:24:33.303Z,13.07
2022-09-30T06:29:34.754Z,12.30
2022-09-30T06:34:36.098Z,12.45
2022-09-30T06:39:37.747Z,11.63
2022-09-30T06:44:51.200Z,11.05
2022-09-30T06:49:58.652Z,12.93
2022-09-30T06:55:00.265Z,13.35
2022-09-30T07:00:02.038Z,11.27
2022-09-30T07:05:03.958Z,12.00
2022-09-30T07:10:13.156Z,11.77
2022-09-30T07:15:14.658Z,12.57
2022-09-30T07:20:16.155Z,12.70
2022-09-30T07:25:18.082Z,12.90
2022-09-30T07:30:26.786Z,11.20
2022-09-30T07:35:28.633Z,10.67
2022-09-30T07:40:31.378Z,17.23
2022-09-30T07:45:32.853Z,11.18
2022-09-30T07:50:34.585Z,12.68
2022-09-30T07:55:35.958Z,12.82
2022-09-30T08:00:42.492Z,14.43
2022-09-30T08:05:45.276Z,13.63
2022-09-30T08:10:46.645Z,14.25
2022-09-30T08:15:48.811Z,11.60
2022-09-30T08:20:50.207Z,14.35
2022-09-30T08:25:51.647Z,16.45
2022-09-30T08:30:53.006Z,12.70
2022-09-30T08:35:54.470Z,12.23
2022-09-30T08:41:18.778Z,12.55
2022-09-30T08:46:35.644Z,12.50
2022-09-30T08:51:39.247Z,12.10
2022-09-30T08:56:40.662Z,10.50
2022-09-30T09:01:44.378Z,11.55
2022-09-30T09:06:52.682Z,9.20
2022-09-30T09:12:02.792Z,10.00
2022-09-30T09:17:15.954Z,9.63
2022-09-30T09:22:21.236Z,8.73
2022-09-30T09:27:34.452Z,7.43
2022-09-30T09:32:36.248Z,5.85
2022-09-30T09:38:01.127Z,4.07
2022-09-30T09:43:10.186Z,5.05
2022-09-30T09:48:13.658Z,8.20
2022-09-30T09:53:18.116Z,7.88
2022-09-30T09:58:21.697Z,7.07
2022-09-30T10:03:26.339Z,7.40
2022-09-30T10:08:29.113Z,7.20
2022-09-30T10:13:32.824Z,10.25
2022-09-30T10:18:35.748Z,8.20
2022-09-30T10:23:41.084Z,10.00
2022-09-30T10:28:45.823Z,9.15
2022-09-30T10:33:48.495Z,9.98
2022-09-30T10:38:55.709Z,9.57
2022-09-30T10:43:59.056Z,7.22
2022-09-30T10:49:00.815Z,11.23
2022-09-30T10:54:03.429Z,10.02
2022-09-30T10:59:06.857Z,10.65
2022-09-30T11:04:08.387Z,10.23
2022-09-30T11:09:30.006Z,10.93
2022-09-30T11:14:35.106Z,12.63
2022-09-30T11:19:39.847Z,11.48
2022-09-30T11:24:45.661Z,11.50
2022-09-30T11:29:53.125Z,13.63
2022-09-30T11:35:01.554Z,14.82
2022-09-30T11:40:18.364Z,13.00
2022-09-30T11:45:26.032Z,12.93
2022-09-30T11:50:42.761Z,13.10
2022-09-30T11:55:50.405Z,12.05
2022-09-30T12:00:56.378Z,8.68
2022-09-30T12:05:59.738Z,7.53
2022-09-30T12:11:07.742Z,6.78
2022-09-30T12:16:12.111Z,8.50
2022-09-30T12:21:20.634Z,7.35
2022-09-30T12:26:22.065Z,5.50
2022-09-30T12:31:27.007Z,6.45
2022-09-30T12:36:51.259Z,6.15
2022-09-30T12:41:58.829Z,5.10
2022-09-30T12:47:18.799Z,4.45
2022-09-30T12:52:21.492Z,4.80
2022-09-30T12:57:34.040Z,7.55
2022-09-30T13:02:38.053Z,2.65
2022-09-30T13:07:59.334Z,5.30
2022-09-30T13:13:12.966Z,3.83
2022-09-30T13:18:20.566Z,4.80
2022-09-30T13:23:37.581Z,4.63
2022-09-30T13:28:39.075Z,4.18
2022-09-30T13:33:42.862Z,4.55
2022-09-30T13:38:44.272Z,4.85
2022-09-30T13:43:58.275Z,5.03
2022-09-30T13:49:21.735Z,4.15
2022-09-30T13:54:23.581Z,4.47
2022-09-30T13:59:32.757Z,5.90
2022-09-30T14:04:47.448Z,6.43
2022-09-30T14:10:08.388Z,5.70
2022-09-30T14:15:17.344Z,6.78
2022-09-30T14:20:27.684Z,7.90
2022-09-30T14:25:34.055Z,8.70
2022-09-30T14:30:42.306Z,8.73
2022-09-30T14:35:43.930Z,6.95
2022-09-30T14:40:50.615Z,6.65
2022-09-30T14:45:55.187Z,5.60
2022-09-30T14:51:00.321Z,7.60
2022-09-30T14:56:03.041Z,7.57
2022-09-30T15:01:17.759Z,8.80
2022-09-30T15:06:23.396Z,7.95
2022-09-30T15:11:28.563Z,8.52
2022-09-30T15:16:31.305Z,7.97
2022-09-30T15:21:33.055Z,7.18
2022-09-30T15:26:35.101Z,7.88
2022-09-30T15:31:41.564Z,6.13
2022-09-30T15:36:43.727Z,6.93
2022-09-30T15:41:46.510Z,5.97
2022-09-30T15:47:08.424Z,6.60
2022-09-30T15:52:28.219Z,6.60
2022-09-30T15:57:45.223Z,6.47
2022-09-30T16:02:46.637Z,8.07
2022-09-30T16:07:48.071Z,7.13
2022-09-30T16:12:49.630Z,6.05
2022-09-30T16:17:51.066Z,7.68
2022-09-30T16:22:53.549Z,9.27
2022-09-30T16:28:02.057Z,7.05
2022-09-30T16:33:04.767Z,7.93
2022-09-30T16:38:06.829Z,10.70
2022-09-30T16:43:11.605Z,10.13
2022-09-30T16:48:16.879Z,10.27
2022-09-30T16:53:18.316Z,12.52
2022-09-30T16:58:19.916Z,12.27
2022-09-30T17:03:22.137Z,11.27
2022-09-30T17:08:26.559Z,10.48
2022-09-30T17:13:28.649Z,12.50
2022-09-30T17:18:30.025Z,10.82
2022-09-30T17:23:31.358Z,12.00
2022-09-30T17:28:34.674Z,11.95
2022-09-30T17:33:37.710Z,14.48
2022-09-30T17:38:39.342Z,14.20
2022-09-30T17:43:40.715Z,14.00
2022-09-30T17:48:43.485Z,14.30
2022-09-30T17:53:45.159Z,12.95
2022-09-30T17:58:47.703Z,10.82
2022-09-30T18:03:52.982Z,12.75
2022-09-30T18:08:54.495Z,11.88
2022-09-30T18:13:57.928Z,12.30
2022-09-30T18:19:00.634Z,11.40
2022-09-30T18:24:02.216Z,9.80
2022-09-30T18:29:04.117Z,11.02
2022-09-30T18:34:05.511Z,10.30
2022-09-30T18:39:06.982Z,11.75
2022-09-30T18:44:09.087Z,11.80
2022-09-30T18:49:10.647Z,10.23
2022-09-30T18:54:15.267Z,10.57
2022-09-30T18:59:19.264Z,9.93
2022-09-30T19:04:23.378Z,13.73
2022-09-30T19:09:26.714Z,9.90
2022-09-30T19:14:30.684Z,9.35
2022-09-30T19:19:35.087Z,11.18
2022-09-30T19:24:37.892Z,12.07
2022-09-30T19:29:40.469Z,8.80
2022-09-30T19:34:42.822Z,11.40
2022-09-30T19:39:46.334Z,7.82
2022-09-30T19:44:47.783Z,9.50
2022-09-30T19:49:49.156Z,8.93
2022-09-30T19:54:51.836Z,10.20
2022-09-30T19:59:53.492Z,8.13
2022-09-30T20:04:55.178Z,9.65
2022-09-30T20:09:56.799Z,9.73
2022-09-30T20:15:16.916Z,10.77
2022-09-30T20:20:37.228Z,9.13
2022-09-30T20:25:38.779Z,8.48
2022-09-30T20:30:47.739Z,10.00
2022-09-30T20:35:49.237Z,14.43
2022-09-30T20:40:54.523Z,8.63
2022-09-30T20:46:00.276Z,7.63
2022-09-30T20:51:06.067Z,9.80
2022-09-30T20:56:08.312Z,10.35
2022-09-30T21:01:11.460Z,11.13
2022-09-30T21:06:12.886Z,8.18
2022-09-30T21:11:14.672Z,10.32
2022-09-30T21:16:17.383Z,10.50
2022-09-30T21:21:19.616Z,10.73
2022-09-30T21:26:21.002Z,8.85
2022-09-30T21:31:27.278Z,9.82
2022-09-30T21:36:28.989Z,9.15
2022-09-30T21:41:31.239Z,9.50
2022-09-30T21:46:33.283Z,9.95
2022-09-30T21:51:36.111Z,9.00
2022-09-30T21:56:38.174Z,10.05
2022-09-30T22:01:40.038Z,10.38
2022-09-30T22:06:41.453Z,8.82
2022-09-30T22:11:43.839Z,13.80
2022-09-30T22:16:45.814Z,9.55
2022-09-30T22:21:47.435Z,13.32
2022-09-30T22:26:49.192Z,12.05
2022-09-30T22:31:50.555Z,9.88
2022-09-30T22:37:10.429Z,10.30
2022-09-30T22:42:11.777Z,9.48
2022-09-30T22:47:13.323Z,9.10
2022-09-30T22:52:14.817Z,10.98
2022-09-30T22:57:16.255Z,11.57
2022-09-30T23:02:21.172Z,9.57
2022-09-30T23:07:22.588Z,9.82
2022-09-30T23:12:24.808Z,9.60
2022-09-30T23:17:28.070Z,11.10
2022-09-30T23:22:29.441Z,8.75
2022-09-30T23:27:30.801Z,10.63
2022-09-30T23:32:32.092Z,9.88
2022-09-30T23:37:33.416Z,10.73
2022-09-30T23:42:35.756Z,9.75
2022-09-30T23:47:37.397Z,11.40
2022-09-30T23:52:38.734Z,11.77
2022-09-30T23:57:40.140Z,9.57
